Terminal Aerodrome Forecast
Issued by NWS

Home | Current Version | Previous Version | Text Only | Print | Product List | Glossary On
Versions: 1 2 3 4 5 6 7 8 9 10 11 12 13 14 15 16 17 18 19 20 21 22 23
000
FTUS43 KLSX 010520
TAFCPS
TAF
KCPS 010520Z 0106/0206 31006KT P6SM VCSH OVC015
     FM011000 VRB04KT P6SM BKN008
     FM011500 30007KT P6SM BKN015
     FM012100 30007KT P6SM BKN030
     FM020100 VRB03KT P6SM BKN035=

USA.gov is the U.S. government's official web portal to all federal, state and local government web resources and services.